sensor_id;sensor_type;location;lat;lon;timestamp;noise_LAeq;noise_LA_min;noise_LA_max;noise_LA01;noise_LA95
45964;Laerm;31671;48.092;11.842;2022-09-03T00:00:53;29.27;27.98;32.45;;
45964;Laerm;31671;48.092;11.842;2022-09-03T00:03:26;29.30;27.89;31.58;;
45964;Laerm;31671;48.092;11.842;2022-09-03T00:11:19;29.27;28.01;31.17;;
45964;Laerm;31671;48.092;11.842;2022-09-03T00:13:57;29.18;27.90;30.93;;
45964;Laerm;31671;48.092;11.842;2022-09-03T00:16:25;29.18;27.89;30.57;;
45964;Laerm;31671;48.092;11.842;2022-09-03T00:18:55;29.16;27.79;30.48;;
45964;Laerm;31671;48.092;11.842;2022-09-03T00:21:44;29.34;27.81;31.37;;
45964;Laerm;31671;48.092;11.842;2022-09-03T00:24:09;29.15;27.84;30.40;;
45964;Laerm;31671;48.092;11.842;2022-09-03T00:26:37;29.17;27.81;30.33;;
45964;Laerm;31671;48.092;11.842;2022-09-03T00:29:08;29.18;27.72;30.55;;
45964;Laerm;31671;48.092;11.842;2022-09-03T00:32:12;29.31;27.78;30.94;;
45964;Laerm;31671;48.092;11.842;2022-09-03T00:37:12;29.25;27.86;30.51;;
45964;Laerm;31671;48.092;11.842;2022-09-03T00:39:39;29.18;27.81;30.46;;
45964;Laerm;31671;48.092;11.842;2022-09-03T00:52:35;29.23;27.89;30.54;;
45964;Laerm;31671;48.092;11.842;2022-09-03T01:00:37;29.23;27.83;30.48;;
45964;Laerm;31671;48.092;11.842;2022-09-03T01:13:36;29.20;27.67;30.36;;
45964;Laerm;31671;48.092;11.842;2022-09-03T01:26:49;29.31;28.01;31.45;;
45964;Laerm;31671;48.092;11.842;2022-09-03T01:29:24;29.31;27.93;30.84;;
45964;Laerm;31671;48.092;11.842;2022-09-03T01:37:14;29.16;27.64;30.43;;
45964;Laerm;31671;48.092;11.842;2022-09-03T01:39:51;29.13;27.84;30.66;;
45964;Laerm;31671;48.092;11.842;2022-09-03T01:42:22;29.15;27.76;32.51;;
45964;Laerm;31671;48.092;11.842;2022-09-03T01:50:02;29.16;27.88;30.43;;
45964;Laerm;31671;48.092;11.842;2022-09-03T02:00:18;29.19;27.92;30.67;;
45964;Laerm;31671;48.092;11.842;2022-09-03T02:02:45;29.20;27.88;30.54;;
45964;Laerm;31671;48.092;11.842;2022-09-03T02:05:16;29.21;27.92;30.44;;
45964;Laerm;31671;48.092;11.842;2022-09-03T02:07:47;29.22;27.69;30.50;;
45964;Laerm;31671;48.092;11.842;2022-09-03T02:10:20;29.33;28.08;30.76;;
45964;Laerm;31671;48.092;11.842;2022-09-03T02:12:48;29.22;27.75;31.10;;
45964;Laerm;31671;48.092;11.842;2022-09-03T02:15:17;29.81;27.94;34.10;;
45964;Laerm;31671;48.092;11.842;2022-09-03T02:17:44;29.33;28.07;31.49;;
45964;Laerm;31671;48.092;11.842;2022-09-03T02:20:12;29.23;27.90;30.53;;
45964;Laerm;31671;48.092;11.842;2022-09-03T02:22:40;30.07;28.07;35.89;;
45964;Laerm;31671;48.092;11.842;2022-09-03T02:25:08;29.23;27.96;30.43;;
45964;Laerm;31671;48.092;11.842;2022-09-03T02:27:34;30.26;27.85;37.06;;
45964;Laerm;31671;48.092;11.842;2022-09-03T02:29:59;29.21;27.97;30.42;;
45964;Laerm;31671;48.092;11.842;2022-09-03T02:32:26;29.21;27.55;30.45;;
45964;Laerm;31671;48.092;11.842;2022-09-03T02:34:53;29.51;28.06;32.55;;
45964;Laerm;31671;48.092;11.842;2022-09-03T02:37:19;29.21;27.96;30.41;;
45964;Laerm;31671;48.092;11.842;2022-09-03T02:39:45;29.25;28.01;30.49;;
45964;Laerm;31671;48.092;11.842;2022-09-03T02:42:11;29.24;27.90;31.43;;
45964;Laerm;31671;48.092;11.842;2022-09-03T02:44:39;29.26;27.97;30.57;;
45964;Laerm;31671;48.092;11.842;2022-09-03T02:47:06;29.21;27.88;30.38;;
45964;Laerm;31671;48.092;11.842;2022-09-03T02:49:33;29.19;27.80;30.54;;
45964;Laerm;31671;48.092;11.842;2022-09-03T02:52:00;29.15;27.92;30.86;;
45964;Laerm;31671;48.092;11.842;2022-09-03T02:54:26;29.18;27.96;31.02;;
45964;Laerm;31671;48.092;11.842;2022-09-03T02:56:52;29.15;27.83;31.84;;
45964;Laerm;31671;48.092;11.842;2022-09-03T02:59:18;29.19;27.88;30.77;;
45964;Laerm;31671;48.092;11.842;2022-09-03T03:01:43;29.23;27.70;31.38;;
45964;Laerm;31671;48.092;11.842;2022-09-03T03:04:09;29.22;27.80;31.19;;
45964;Laerm;31671;48.092;11.842;2022-09-03T03:06:35;29.22;27.89;31.38;;
45964;Laerm;31671;48.092;11.842;2022-09-03T03:09:01;29.15;27.81;31.29;;
45964;Laerm;31671;48.092;11.842;2022-09-03T03:11:27;29.20;27.96;31.50;;
45964;Laerm;31671;48.092;11.842;2022-09-03T03:13:53;29.19;27.86;31.38;;
45964;Laerm;31671;48.092;11.842;2022-09-03T03:16:19;29.20;27.84;30.92;;
45964;Laerm;31671;48.092;11.842;2022-09-03T03:18:44;29.14;27.58;30.48;;
45964;Laerm;31671;48.092;11.842;2022-09-03T03:21:12;29.17;27.78;30.98;;
45964;Laerm;31671;48.092;11.842;2022-09-03T03:23:38;29.20;27.83;31.37;;
45964;Laerm;31671;48.092;11.842;2022-09-03T03:26:05;29.20;27.94;31.83;;
45964;Laerm;31671;48.092;11.842;2022-09-03T03:28:31;29.29;28.01;32.05;;
45964;Laerm;31671;48.092;11.842;2022-09-03T03:30:57;29.22;27.83;32.88;;
45964;Laerm;31671;48.092;11.842;2022-09-03T03:33:23;29.38;27.89;31.81;;
45964;Laerm;31671;48.092;11.842;2022-09-03T03:35:48;29.12;27.88;31.85;;
45964;Laerm;31671;48.092;11.842;2022-09-03T03:38:14;29.63;27.93;33.27;;
45964;Laerm;31671;48.092;11.842;2022-09-03T03:40:42;29.22;27.75;31.85;;
45964;Laerm;31671;48.092;11.842;2022-09-03T03:43:07;29.29;27.90;33.26;;
45964;Laerm;31671;48.092;11.842;2022-09-03T03:45:33;29.17;27.92;32.19;;
45964;Laerm;31671;48.092;11.842;2022-09-03T03:47:59;29.19;27.60;32.55;;
45964;Laerm;31671;48.092;11.842;2022-09-03T03:50:24;29.15;27.84;32.40;;
45964;Laerm;31671;48.092;11.842;2022-09-03T03:52:57;29.23;27.79;31.63;;
45964;Laerm;31671;48.092;11.842;2022-09-03T03:55:23;29.38;27.94;32.40;;
45964;Laerm;31671;48.092;11.842;2022-09-03T03:57:49;29.20;27.83;31.81;;
45964;Laerm;31671;48.092;11.842;2022-09-03T04:00:15;29.32;27.75;31.89;;
45964;Laerm;31671;48.092;11.842;2022-09-03T04:02:41;29.25;27.77;32.16;;
45964;Laerm;31671;48.092;11.842;2022-09-03T04:05:08;29.29;27.71;32.31;;
45964;Laerm;31671;48.092;11.842;2022-09-03T04:07:34;59.29;27.96;95.43;;
45964;Laerm;31671;48.092;11.842;2022-09-03T04:10:00;29.32;27.99;31.37;;
45964;Laerm;31671;48.092;11.842;2022-09-03T04:12:27;29.30;27.59;30.84;;
45964;Laerm;31671;48.092;11.842;2022-09-03T04:14:53;29.20;27.78;32.10;;
45964;Laerm;31671;48.092;11.842;2022-09-03T04:17:18;29.19;27.86;31.62;;
45964;Laerm;31671;48.092;11.842;2022-09-03T04:19:44;29.24;27.79;31.27;;
45964;Laerm;31671;48.092;11.842;2022-09-03T04:22:11;29.36;27.76;33.48;;
45964;Laerm;31671;48.092;11.842;2022-09-03T04:24:37;29.24;27.75;31.65;;
45964;Laerm;31671;48.092;11.842;2022-09-03T04:27:02;29.24;27.76;33.46;;
45964;Laerm;31671;48.092;11.842;2022-09-03T04:29:28;29.19;27.93;34.28;;
45964;Laerm;31671;48.092;11.842;2022-09-03T04:31:55;29.25;27.72;39.59;;
45964;Laerm;31671;48.092;11.842;2022-09-03T04:34:21;29.26;27.77;31.24;;
45964;Laerm;31671;48.092;11.842;2022-09-03T04:36:47;29.22;27.77;30.89;;
45964;Laerm;31671;48.092;11.842;2022-09-03T04:39:13;29.21;27.95;30.55;;
45964;Laerm;31671;48.092;11.842;2022-09-03T04:41:40;29.31;28.04;30.71;;
45964;Laerm;31671;48.092;11.842;2022-09-03T04:44:08;29.38;27.86;31.26;;
45964;Laerm;31671;48.092;11.842;2022-09-03T04:46:34;29.33;27.62;31.49;;
45964;Laerm;31671;48.092;11.842;2022-09-03T04:49:01;29.26;27.96;32.57;;
45964;Laerm;31671;48.092;11.842;2022-09-03T04:51:27;29.44;27.87;36.34;;
45964;Laerm;31671;48.092;11.842;2022-09-03T04:53:56;29.30;27.97;34.49;;
45964;Laerm;31671;48.092;11.842;2022-09-03T04:56:24;29.32;27.71;31.30;;
45964;Laerm;31671;48.092;11.842;2022-09-03T04:58:54;29.42;27.87;38.53;;
45964;Laerm;31671;48.092;11.842;2022-09-03T05:01:20;29.30;27.77;31.96;;
45964;Laerm;31671;48.092;11.842;2022-09-03T05:03:47;29.31;27.63;32.40;;
45964;Laerm;31671;48.092;11.842;2022-09-03T05:06:13;29.88;27.68;34.95;;
45964;Laerm;31671;48.092;11.842;2022-09-03T05:08:39;29.24;27.99;30.43;;
45964;Laerm;31671;48.092;11.842;2022-09-03T05:11:06;29.26;27.92;31.82;;
45964;Laerm;31671;48.092;11.842;2022-09-03T05:13:33;29.21;27.86;30.50;;
45964;Laerm;31671;48.092;11.842;2022-09-03T05:18:25;29.50;28.16;32.39;;
45964;Laerm;31671;48.092;11.842;2022-09-03T05:21:27;29.79;28.46;31.14;;
45964;Laerm;31671;48.092;11.842;2022-09-03T05:23:46;29.93;28.52;37.05;;
45964;Laerm;31671;48.092;11.842;2022-09-03T05:26:13;30.05;28.52;37.39;;
45964;Laerm;31671;48.092;11.842;2022-09-03T05:28:40;30.02;28.86;37.06;;
45964;Laerm;31671;48.092;11.842;2022-09-03T05:33:35;30.07;28.59;35.11;;
45964;Laerm;31671;48.092;11.842;2022-09-03T05:36:01;30.11;28.63;36.12;;
45964;Laerm;31671;48.092;11.842;2022-09-03T05:38:29;30.05;28.72;37.11;;
45964;Laerm;31671;48.092;11.842;2022-09-03T05:40:57;30.05;28.76;36.58;;
45964;Laerm;31671;48.092;11.842;2022-09-03T05:43:23;30.01;28.64;31.77;;
45964;Laerm;31671;48.092;11.842;2022-09-03T05:45:49;30.00;28.78;37.29;;
45964;Laerm;31671;48.092;11.842;2022-09-03T05:48:15;29.95;28.70;36.23;;
45964;Laerm;31671;48.092;11.842;2022-09-03T05:50:41;29.93;28.66;35.57;;
45964;Laerm;31671;48.092;11.842;2022-09-03T05:53:06;29.92;28.68;35.77;;
45964;Laerm;31671;48.092;11.842;2022-09-03T05:55:32;29.94;28.55;36.97;;
45964;Laerm;31671;48.092;11.842;2022-09-03T05:57:58;29.94;28.68;36.35;;
45964;Laerm;31671;48.092;11.842;2022-09-03T06:00:24;29.92;28.52;32.11;;
45964;Laerm;31671;48.092;11.842;2022-09-03T06:02:52;29.99;28.48;31.55;;
45964;Laerm;31671;48.092;11.842;2022-09-03T06:05:19;29.92;28.55;33.16;;
45964;Laerm;31671;48.092;11.842;2022-09-03T06:07:44;30.09;28.72;42.72;;
45964;Laerm;31671;48.092;11.842;2022-09-03T06:10:10;29.94;28.43;31.48;;
45964;Laerm;31671;48.092;11.842;2022-09-03T06:12:36;30.09;28.51;42.81;;
45964;Laerm;31671;48.092;11.842;2022-09-03T06:15:02;30.20;28.72;33.89;;
45964;Laerm;31671;48.092;11.842;2022-09-03T06:17:28;29.97;28.59;36.14;;
45964;Laerm;31671;48.092;11.842;2022-09-03T06:19:55;30.20;28.77;37.10;;
45964;Laerm;31671;48.092;11.842;2022-09-03T06:22:21;29.95;28.55;37.59;;
45964;Laerm;31671;48.092;11.842;2022-09-03T06:24:46;29.90;28.50;36.37;;
45964;Laerm;31671;48.092;11.842;2022-09-03T06:27:12;29.95;28.60;36.07;;
45964;Laerm;31671;48.092;11.842;2022-09-03T06:29:38;29.90;28.42;32.87;;
45964;Laerm;31671;48.092;11.842;2022-09-03T06:32:03;29.87;28.49;31.19;;
45964;Laerm;31671;48.092;11.842;2022-09-03T06:34:30;29.95;28.60;33.57;;
45964;Laerm;31671;48.092;11.842;2022-09-03T06:36:56;29.99;28.60;32.32;;
45964;Laerm;31671;48.092;11.842;2022-09-03T06:39:23;30.29;28.67;35.74;;
45964;Laerm;31671;48.092;11.842;2022-09-03T06:41:49;30.21;28.57;39.40;;
45964;Laerm;31671;48.092;11.842;2022-09-03T06:44:14;29.95;28.62;34.05;;
45964;Laerm;31671;48.092;11.842;2022-09-03T06:46:40;30.25;28.47;35.32;;
45964;Laerm;31671;48.092;11.842;2022-09-03T06:49:06;30.01;28.65;33.88;;
45964;Laerm;31671;48.092;11.842;2022-09-03T06:51:32;30.03;28.63;34.67;;
45964;Laerm;31671;48.092;11.842;2022-09-03T06:53:59;29.98;28.73;32.03;;
45964;Laerm;31671;48.092;11.842;2022-09-03T06:56:25;29.94;28.58;31.32;;
45964;Laerm;31671;48.092;11.842;2022-09-03T06:58:51;29.96;28.63;31.14;;
45964;Laerm;31671;48.092;11.842;2022-09-03T07:01:18;30.04;28.70;32.88;;
45964;Laerm;31671;48.092;11.842;2022-09-03T07:03:45;30.02;28.81;34.88;;
45964;Laerm;31671;48.092;11.842;2022-09-03T07:06:15;30.02;28.89;31.45;;
45964;Laerm;31671;48.092;11.842;2022-09-03T07:08:42;30.00;28.48;31.44;;
45964;Laerm;31671;48.092;11.842;2022-09-03T07:11:10;30.05;28.71;33.46;;
45964;Laerm;31671;48.092;11.842;2022-09-03T07:13:38;30.07;28.57;37.75;;
45964;Laerm;31671;48.092;11.842;2022-09-03T07:16:11;30.07;28.79;32.06;;
45964;Laerm;31671;48.092;11.842;2022-09-03T07:18:38;30.09;28.70;34.78;;
45964;Laerm;31671;48.092;11.842;2022-09-03T07:21:09;30.20;28.89;36.13;;
45964;Laerm;31671;48.092;11.842;2022-09-03T07:23:35;30.28;28.76;42.93;;
45964;Laerm;31671;48.092;11.842;2022-09-03T07:26:03;30.07;28.61;42.69;;
45964;Laerm;31671;48.092;11.842;2022-09-03T07:28:29;29.90;28.50;36.82;;
45964;Laerm;31671;48.092;11.842;2022-09-03T07:30:59;29.88;28.61;35.40;;
45964;Laerm;31671;48.092;11.842;2022-09-03T07:33:27;29.97;28.71;34.60;;
45964;Laerm;31671;48.092;11.842;2022-09-03T07:35:53;29.99;28.64;35.49;;
45964;Laerm;31671;48.092;11.842;2022-09-03T07:38:19;29.89;28.52;34.63;;
45964;Laerm;31671;48.092;11.842;2022-09-03T07:40:45;29.94;28.72;35.45;;
45964;Laerm;31671;48.092;11.842;2022-09-03T07:43:12;30.02;28.55;40.33;;
45964;Laerm;31671;48.092;11.842;2022-09-03T07:45:37;29.99;28.70;33.97;;
45964;Laerm;31671;48.092;11.842;2022-09-03T07:48:03;29.98;28.70;31.67;;
45964;Laerm;31671;48.092;11.842;2022-09-03T07:50:29;30.02;28.67;33.12;;
45964;Laerm;31671;48.092;11.842;2022-09-03T07:52:55;29.97;28.71;32.26;;
45964;Laerm;31671;48.092;11.842;2022-09-03T07:55:21;30.17;28.59;39.89;;
45964;Laerm;31671;48.092;11.842;2022-09-03T07:57:47;29.93;28.66;38.36;;
45964;Laerm;31671;48.092;11.842;2022-09-03T08:00:13;30.02;28.27;37.04;;
45964;Laerm;31671;48.092;11.842;2022-09-03T08:02:40;29.90;28.37;36.13;;
45964;Laerm;31671;48.092;11.842;2022-09-03T08:05:05;29.92;28.27;36.42;;
45964;Laerm;31671;48.092;11.842;2022-09-03T08:07:32;31.94;28.61;53.79;;
45964;Laerm;31671;48.092;11.842;2022-09-03T08:09:58;29.89;28.40;34.04;;
45964;Laerm;31671;48.092;11.842;2022-09-03T08:12:24;29.86;28.42;35.23;;
45964;Laerm;31671;48.092;11.842;2022-09-03T08:14:49;30.20;28.62;35.62;;
45964;Laerm;31671;48.092;11.842;2022-09-03T08:17:15;29.93;28.48;39.18;;
45964;Laerm;31671;48.092;11.842;2022-09-03T08:19:42;30.02;28.57;37.16;;
45964;Laerm;31671;48.092;11.842;2022-09-03T08:22:07;29.90;28.54;35.82;;
45964;Laerm;31671;48.092;11.842;2022-09-03T08:24:38;29.85;28.58;32.45;;
45964;Laerm;31671;48.092;11.842;2022-09-03T08:27:04;29.95;28.67;37.74;;
45964;Laerm;31671;48.092;11.842;2022-09-03T08:29:30;29.94;28.52;37.94;;
45964;Laerm;31671;48.092;11.842;2022-09-03T08:31:56;29.90;28.60;38.66;;
45964;Laerm;31671;48.092;11.842;2022-09-03T08:34:22;29.84;28.17;38.25;;
45964;Laerm;31671;48.092;11.842;2022-09-03T08:36:50;29.98;28.73;37.86;;
45964;Laerm;31671;48.092;11.842;2022-09-03T08:39:16;30.01;28.64;47.08;;
45964;Laerm;31671;48.092;11.842;2022-09-03T08:42:05;29.91;28.62;38.25;;
45964;Laerm;31671;48.092;11.842;2022-09-03T08:44:44;29.85;28.39;32.85;;
45964;Laerm;31671;48.092;11.842;2022-09-03T08:54:50;29.87;28.52;38.77;;
45964;Laerm;31671;48.092;11.842;2022-09-03T08:57:19;29.99;28.60;46.47;;
45964;Laerm;31671;48.092;11.842;2022-09-03T08:59:48;29.98;28.56;35.93;;
45964;Laerm;31671;48.092;11.842;2022-09-03T09:02:21;29.89;28.40;35.92;;
45964;Laerm;31671;48.092;11.842;2022-09-03T09:10:20;30.03;28.65;45.34;;
45964;Laerm;31671;48.092;11.842;2022-09-03T09:20:28;30.10;28.54;39.47;;
45964;Laerm;31671;48.092;11.842;2022-09-03T09:22:56;30.86;28.59;56.37;;
45964;Laerm;31671;48.092;11.842;2022-09-03T09:25:23;29.91;28.61;31.64;;
45964;Laerm;31671;48.092;11.842;2022-09-03T09:28:01;29.97;28.60;37.54;;
45964;Laerm;31671;48.092;11.842;2022-09-03T09:30:28;30.00;28.48;34.47;;
45964;Laerm;31671;48.092;11.842;2022-09-03T09:32:54;29.85;28.47;36.42;;
45964;Laerm;31671;48.092;11.842;2022-09-03T09:35:20;30.21;28.64;41.67;;
45964;Laerm;31671;48.092;11.842;2022-09-03T09:37:47;29.89;28.46;37.79;;
45964;Laerm;31671;48.092;11.842;2022-09-03T09:43:04;30.13;28.54;39.79;;
45964;Laerm;31671;48.092;11.842;2022-09-03T09:45:31;29.96;28.69;38.43;;
45964;Laerm;31671;48.092;11.842;2022-09-03T09:47:57;29.96;28.67;40.39;;
45964;Laerm;31671;48.092;11.842;2022-09-03T09:50:23;29.94;28.49;35.80;;
45964;Laerm;31671;48.092;11.842;2022-09-03T09:52:58;29.93;28.66;38.29;;
45964;Laerm;31671;48.092;11.842;2022-09-03T09:55:24;29.93;28.50;46.83;;
45964;Laerm;31671;48.092;11.842;2022-09-03T09:57:52;29.94;28.66;32.65;;
45964;Laerm;31671;48.092;11.842;2022-09-03T10:00:29;30.30;28.64;40.52;;
45964;Laerm;31671;48.092;11.842;2022-09-03T10:02:56;30.01;28.49;42.27;;
45964;Laerm;31671;48.092;11.842;2022-09-03T10:05:23;29.87;28.42;37.66;;
45964;Laerm;31671;48.092;11.842;2022-09-03T10:07:56;29.83;28.39;31.80;;
45964;Laerm;31671;48.092;11.842;2022-09-03T10:10:22;29.85;28.76;31.19;;
45964;Laerm;31671;48.092;11.842;2022-09-03T10:12:52;30.07;28.82;37.58;;
45964;Laerm;31671;48.092;11.842;2022-09-03T10:15:22;29.98;28.57;34.75;;
45964;Laerm;31671;48.092;11.842;2022-09-03T10:18:02;30.40;28.60;38.20;;
45964;Laerm;31671;48.092;11.842;2022-09-03T10:20:43;30.00;28.46;36.14;;
45964;Laerm;31671;48.092;11.842;2022-09-03T10:23:11;30.19;28.73;35.35;;
45964;Laerm;31671;48.092;11.842;2022-09-03T10:28:07;29.87;28.24;32.63;;
45964;Laerm;31671;48.092;11.842;2022-09-03T10:30:38;30.34;28.69;36.36;;
45964;Laerm;31671;48.092;11.842;2022-09-03T10:35:36;29.81;28.73;31.18;;
45964;Laerm;31671;48.092;11.842;2022-09-03T10:38:14;29.97;28.56;32.42;;
45964;Laerm;31671;48.092;11.842;2022-09-03T10:51:30;29.81;28.33;31.99;;
45964;Laerm;31671;48.092;11.842;2022-09-03T11:04:31;29.69;28.20;38.56;;
45964;Laerm;31671;48.092;11.842;2022-09-03T11:07:08;30.60;28.13;44.15;;
45964;Laerm;31671;48.092;11.842;2022-09-03T11:09:45;29.74;28.55;35.22;;
45964;Laerm;31671;48.092;11.842;2022-09-03T11:12:17;29.74;28.39;40.40;;
45964;Laerm;31671;48.092;11.842;2022-09-03T11:14:52;29.84;28.56;38.66;;
45964;Laerm;31671;48.092;11.842;2022-09-03T11:17:21;29.69;28.25;38.99;;
45964;Laerm;31671;48.092;11.842;2022-09-03T11:19:51;29.94;28.19;42.99;;
45964;Laerm;31671;48.092;11.842;2022-09-03T11:22:19;29.57;28.28;37.97;;
45964;Laerm;31671;48.092;11.842;2022-09-03T11:24:48;29.52;28.24;31.00;;
45964;Laerm;31671;48.092;11.842;2022-09-03T11:27:34;30.03;28.30;34.88;;
45964;Laerm;31671;48.092;11.842;2022-09-03T11:30:09;29.55;28.04;30.89;;
45964;Laerm;31671;48.092;11.842;2022-09-03T11:43:25;29.44;28.08;39.07;;
45964;Laerm;31671;48.092;11.842;2022-09-03T11:51:19;29.46;28.23;37.16;;
45964;Laerm;31671;48.092;11.842;2022-09-03T11:56:26;29.46;28.16;30.80;;
45964;Laerm;31671;48.092;11.842;2022-09-03T11:59:03;29.71;28.08;35.22;;
45964;Laerm;31671;48.092;11.842;2022-09-03T12:01:32;29.43;27.99;34.16;;
45964;Laerm;31671;48.092;11.842;2022-09-03T12:04:01;29.49;28.24;34.43;;
45964;Laerm;31671;48.092;11.842;2022-09-03T12:22:04;33.56;28.23;54.37;;
45964;Laerm;31671;48.092;11.842;2022-09-03T12:24:30;30.63;27.97;44.83;;
45964;Laerm;31671;48.092;11.842;2022-09-03T12:26:56;29.57;28.22;38.19;;
45964;Laerm;31671;48.092;11.842;2022-09-03T12:29:26;29.55;28.11;39.48;;
45964;Laerm;31671;48.092;11.842;2022-09-03T12:31:52;29.74;28.07;42.92;;
45964;Laerm;31671;48.092;11.842;2022-09-03T12:34:19;29.47;27.98;38.02;;
45964;Laerm;31671;48.092;11.842;2022-09-03T12:36:46;29.50;28.00;38.45;;
45964;Laerm;31671;48.092;11.842;2022-09-03T12:41:38;29.59;28.07;40.23;;
45964;Laerm;31671;48.092;11.842;2022-09-03T12:44:11;29.95;28.13;41.38;;
45964;Laerm;31671;48.092;11.842;2022-09-03T12:46:37;29.53;28.24;34.44;;
45964;Laerm;31671;48.092;11.842;2022-09-03T12:49:04;30.41;28.27;46.82;;
45964;Laerm;31671;48.092;11.842;2022-09-03T12:51:31;32.17;28.32;54.48;;
45964;Laerm;31671;48.092;11.842;2022-09-03T12:53:57;30.38;28.28;45.52;;
45964;Laerm;31671;48.092;11.842;2022-09-03T12:56:23;29.62;28.16;43.36;;
45964;Laerm;31671;48.092;11.842;2022-09-03T12:58:54;29.66;28.27;36.00;;
45964;Laerm;31671;48.092;11.842;2022-09-03T13:01:26;30.44;28.22;48.98;;
45964;Laerm;31671;48.092;11.842;2022-09-03T13:03:53;29.59;27.93;42.51;;
45964;Laerm;31671;48.092;11.842;2022-09-03T13:06:20;29.99;28.11;38.53;;
45964;Laerm;31671;48.092;11.842;2022-09-03T13:08:51;30.09;28.00;38.99;;
45964;Laerm;31671;48.092;11.842;2022-09-03T13:11:18;29.52;28.09;39.15;;
45964;Laerm;31671;48.092;11.842;2022-09-03T13:14:27;29.32;27.98;34.80;;
45964;Laerm;31671;48.092;11.842;2022-09-03T13:24:46;29.36;27.89;30.79;;
45964;Laerm;31671;48.092;11.842;2022-09-03T13:27:38;29.36;27.93;31.56;;
45964;Laerm;31671;48.092;11.842;2022-09-03T13:30:07;29.67;28.20;39.52;;
45964;Laerm;31671;48.092;11.842;2022-09-03T13:35:03;29.98;28.03;38.88;;
45964;Laerm;31671;48.092;11.842;2022-09-03T13:37:44;34.73;28.03;56.11;;
45964;Laerm;31671;48.092;11.842;2022-09-03T13:40:18;29.66;27.99;40.81;;
45964;Laerm;31671;48.092;11.842;2022-09-03T13:43:04;29.51;28.20;34.00;;
45964;Laerm;31671;48.092;11.842;2022-09-03T13:45:36;30.25;28.19;44.05;;
45964;Laerm;31671;48.092;11.842;2022-09-03T13:48:09;30.89;28.33;43.47;;
45964;Laerm;31671;48.092;11.842;2022-09-03T13:51:02;29.97;28.27;39.67;;
45964;Laerm;31671;48.092;11.842;2022-09-03T13:56:25;31.28;28.48;47.44;;
45964;Laerm;31671;48.092;11.842;2022-09-03T13:58:56;30.22;28.35;37.73;;
45964;Laerm;31671;48.092;11.842;2022-09-03T14:01:25;30.10;28.63;34.35;;
45964;Laerm;31671;48.092;11.842;2022-09-03T14:03:52;30.43;28.92;35.76;;
45964;Laerm;31671;48.092;11.842;2022-09-03T14:06:23;30.22;28.85;39.29;;
45964;Laerm;31671;48.092;11.842;2022-09-03T14:16:27;30.80;29.01;46.23;;
45964;Laerm;31671;48.092;11.842;2022-09-03T14:21:26;30.54;28.81;37.08;;
45964;Laerm;31671;48.092;11.842;2022-09-03T14:24:03;36.50;28.76;47.44;;
45964;Laerm;31671;48.092;11.842;2022-09-03T14:26:32;41.84;29.38;52.00;;
45964;Laerm;31671;48.092;11.842;2022-09-03T14:29:20;40.84;28.55;54.82;;
45964;Laerm;31671;48.092;11.842;2022-09-03T14:37:01;30.25;28.55;45.04;;
45964;Laerm;31671;48.092;11.842;2022-09-03T14:39:31;30.79;28.59;49.32;;
45964;Laerm;31671;48.092;11.842;2022-09-03T14:42:06;30.62;28.65;40.37;;
45964;Laerm;31671;48.092;11.842;2022-09-03T14:44:49;30.47;28.58;42.74;;
45964;Laerm;31671;48.092;11.842;2022-09-03T14:47:26;30.96;28.27;41.80;;
45964;Laerm;31671;48.092;11.842;2022-09-03T14:55:06;30.97;29.09;43.64;;
45964;Laerm;31671;48.092;11.842;2022-09-03T15:00:08;38.43;30.17;56.76;;
45964;Laerm;31671;48.092;11.842;2022-09-03T15:02:58;37.13;30.19;61.66;;
45964;Laerm;31671;48.092;11.842;2022-09-03T15:08:30;37.28;29.98;68.39;;
45964;Laerm;31671;48.092;11.842;2022-09-03T15:11:01;50.00;30.56;77.23;;
45964;Laerm;31671;48.092;11.842;2022-09-03T15:13:34;49.56;29.89;71.01;;
45964;Laerm;31671;48.092;11.842;2022-09-03T15:16:30;58.55;33.42;94.98;;
45964;Laerm;31671;48.092;11.842;2022-09-03T15:19:03;47.40;31.62;76.73;;
45964;Laerm;31671;48.092;11.842;2022-09-03T15:26:33;35.60;29.61;49.76;;
45964;Laerm;31671;48.092;11.842;2022-09-03T15:34:36;35.24;28.70;52.69;;
45964;Laerm;31671;48.092;11.842;2022-09-03T15:37:09;36.42;28.56;52.72;;
45964;Laerm;31671;48.092;11.842;2022-09-03T15:39:37;33.99;29.74;47.82;;
45964;Laerm;31671;48.092;11.842;2022-09-03T15:42:07;33.71;29.29;52.61;;
45964;Laerm;31671;48.092;11.842;2022-09-03T15:44:35;31.09;28.60;39.83;;
45964;Laerm;31671;48.092;11.842;2022-09-03T15:47:04;32.01;28.46;51.07;;
45964;Laerm;31671;48.092;11.842;2022-09-03T15:52:01;30.82;28.44;37.49;;
45964;Laerm;31671;48.092;11.842;2022-09-03T15:57:09;32.74;30.34;38.56;;
45964;Laerm;31671;48.092;11.842;2022-09-03T15:59:39;33.23;29.61;54.95;;
45964;Laerm;31671;48.092;11.842;2022-09-03T16:02:19;31.80;29.01;44.57;;
45964;Laerm;31671;48.092;11.842;2022-09-03T16:25:09;29.89;27.56;41.97;;
45964;Laerm;31671;48.092;11.842;2022-09-03T16:27:41;32.90;27.76;54.97;;
45964;Laerm;31671;48.092;11.842;2022-09-03T16:30:12;32.03;27.53;55.51;;
45964;Laerm;31671;48.092;11.842;2022-09-03T16:40:02;36.02;27.75;57.31;;
45964;Laerm;31671;48.092;11.842;2022-09-03T16:42:39;46.27;27.96;64.71;;
45964;Laerm;31671;48.092;11.842;2022-09-03T16:55:24;39.06;27.64;58.50;;
45964;Laerm;31671;48.092;11.842;2022-09-03T16:58:08;33.98;27.70;51.43;;
45964;Laerm;31671;48.092;11.842;2022-09-03T17:00:46;31.02;27.73;53.22;;
45964;Laerm;31671;48.092;11.842;2022-09-03T17:21:30;32.00;27.72;53.17;;
45964;Laerm;31671;48.092;11.842;2022-09-03T17:32:02;33.93;27.76;55.72;;
45964;Laerm;31671;48.092;11.842;2022-09-03T17:34:28;35.50;27.70;57.97;;
45964;Laerm;31671;48.092;11.842;2022-09-03T17:37:11;29.57;27.63;45.55;;
45964;Laerm;31671;48.092;11.842;2022-09-03T17:42:17;35.24;27.42;55.03;;
45964;Laerm;31671;48.092;11.842;2022-09-03T17:44:49;40.99;27.53;62.23;;
45964;Laerm;31671;48.092;11.842;2022-09-03T17:49:58;39.32;27.74;63.55;;
45964;Laerm;31671;48.092;11.842;2022-09-03T17:55:08;36.05;27.53;61.82;;
45964;Laerm;31671;48.092;11.842;2022-09-03T17:57:40;31.04;27.52;48.39;;
45964;Laerm;31671;48.092;11.842;2022-09-03T18:00:09;29.32;27.41;43.47;;
45964;Laerm;31671;48.092;11.842;2022-09-03T18:02:40;35.94;27.54;58.87;;
45964;Laerm;31671;48.092;11.842;2022-09-03T18:05:21;29.26;27.32;42.75;;
45964;Laerm;31671;48.092;11.842;2022-09-03T18:13:09;29.34;27.47;43.65;;
45964;Laerm;31671;48.092;11.842;2022-09-03T18:15:51;33.01;27.48;66.04;;
45964;Laerm;31671;48.092;11.842;2022-09-03T18:18:23;29.64;27.46;50.61;;
45964;Laerm;31671;48.092;11.842;2022-09-03T18:20:51;29.04;27.55;41.80;;
45964;Laerm;31671;48.092;11.842;2022-09-03T18:23:24;29.10;27.52;42.74;;
45964;Laerm;31671;48.092;11.842;2022-09-03T18:25:54;28.81;27.11;32.64;;
45964;Laerm;31671;48.092;11.842;2022-09-03T18:28:26;48.58;27.10;74.62;;
45964;Laerm;31671;48.092;11.842;2022-09-03T18:30:55;36.74;27.36;62.56;;